sensor_id;sensor_type;location;lat;lon;timestamp;P1;durP1;ratioP1;P2;durP2;ratioP2
5961;SDS011;3007;50.770;0.250;2023-05-07T00:01:25;17.87;;;11.20;;
5961;SDS011;3007;50.770;0.250;2023-05-07T00:03:52;17.97;;;12.60;;
5961;SDS011;3007;50.770;0.250;2023-05-07T00:06:18;16.20;;;12.10;;
5961;SDS011;3007;50.770;0.250;2023-05-07T00:08:45;18.17;;;12.93;;
5961;SDS011;3007;50.770;0.250;2023-05-07T00:11:12;22.00;;;12.70;;
5961;SDS011;3007;50.770;0.250;2023-05-07T00:13:41;23.00;;;14.10;;
5961;SDS011;3007;50.770;0.250;2023-05-07T00:16:08;18.57;;;12.30;;
5961;SDS011;3007;50.770;0.250;2023-05-07T00:18:34;16.83;;;12.47;;
5961;SDS011;3007;50.770;0.250;2023-05-07T00:21:01;16.80;;;12.93;;
5961;SDS011;3007;50.770;0.250;2023-05-07T00:23:28;20.27;;;13.33;;
5961;SDS011;3007;50.770;0.250;2023-05-07T00:25:55;20.07;;;12.90;;
5961;SDS011;3007;50.770;0.250;2023-05-07T00:28:22;17.97;;;11.80;;
5961;SDS011;3007;50.770;0.250;2023-05-07T00:30:50;20.27;;;15.40;;
5961;SDS011;3007;50.770;0.250;2023-05-07T00:33:17;25.00;;;15.40;;
5961;SDS011;3007;50.770;0.250;2023-05-07T00:35:45;23.70;;;15.77;;
5961;SDS011;3007;50.770;0.250;2023-05-07T00:38:12;25.03;;;16.50;;
5961;SDS011;3007;50.770;0.250;2023-05-07T00:40:39;21.90;;;16.50;;
5961;SDS011;3007;50.770;0.250;2023-05-07T00:43:06;23.63;;;15.53;;
5961;SDS011;3007;50.770;0.250;2023-05-07T00:45:34;24.80;;;17.27;;
5961;SDS011;3007;50.770;0.250;2023-05-07T00:48:02;23.17;;;15.50;;
5961;SDS011;3007;50.770;0.250;2023-05-07T00:50:29;28.40;;;17.50;;
5961;SDS011;3007;50.770;0.250;2023-05-07T00:52:57;27.27;;;17.43;;
5961;SDS011;3007;50.770;0.250;2023-05-07T00:55:25;24.03;;;15.73;;
5961;SDS011;3007;50.770;0.250;2023-05-07T00:57:52;24.03;;;15.60;;
5961;SDS011;3007;50.770;0.250;2023-05-07T01:00:20;26.73;;;15.87;;
5961;SDS011;3007;50.770;0.250;2023-05-07T01:02:47;31.67;;;17.27;;
5961;SDS011;3007;50.770;0.250;2023-05-07T01:05:16;26.47;;;17.10;;
5961;SDS011;3007;50.770;0.250;2023-05-07T01:07:45;22.27;;;13.53;;
5961;SDS011;3007;50.770;0.250;2023-05-07T01:10:13;26.07;;;13.77;;
5961;SDS011;3007;50.770;0.250;2023-05-07T01:12:40;24.93;;;16.37;;
5961;SDS011;3007;50.770;0.250;2023-05-07T01:15:08;32.37;;;16.40;;
5961;SDS011;3007;50.770;0.250;2023-05-07T01:17:36;34.10;;;17.30;;
5961;SDS011;3007;50.770;0.250;2023-05-07T01:20:04;24.13;;;16.00;;
5961;SDS011;3007;50.770;0.250;2023-05-07T01:22:34;30.20;;;18.07;;
5961;SDS011;3007;50.770;0.250;2023-05-07T01:25:02;26.43;;;15.37;;
5961;SDS011;3007;50.770;0.250;2023-05-07T01:27:30;24.77;;;15.17;;
5961;SDS011;3007;50.770;0.250;2023-05-07T01:29:58;28.90;;;16.73;;
5961;SDS011;3007;50.770;0.250;2023-05-07T01:32:27;27.43;;;14.87;;
5961;SDS011;3007;50.770;0.250;2023-05-07T01:34:58;29.40;;;15.30;;
5961;SDS011;3007;50.770;0.250;2023-05-07T01:37:27;28.50;;;15.13;;
5961;SDS011;3007;50.770;0.250;2023-05-07T01:39:56;35.60;;;18.30;;
5961;SDS011;3007;50.770;0.250;2023-05-07T01:42:24;34.33;;;17.60;;
5961;SDS011;3007;50.770;0.250;2023-05-07T01:44:51;33.40;;;15.70;;
5961;SDS011;3007;50.770;0.250;2023-05-07T01:47:18;37.77;;;16.60;;
5961;SDS011;3007;50.770;0.250;2023-05-07T01:49:46;31.13;;;17.00;;
5961;SDS011;3007;50.770;0.250;2023-05-07T01:52:13;35.43;;;18.07;;
5961;SDS011;3007;50.770;0.250;2023-05-07T01:54:40;34.73;;;17.07;;
5961;SDS011;3007;50.770;0.250;2023-05-07T01:57:09;33.50;;;17.70;;
5961;SDS011;3007;50.770;0.250;2023-05-07T01:59:36;33.23;;;17.50;;
5961;SDS011;3007;50.770;0.250;2023-05-07T02:02:03;30.73;;;17.37;;
5961;SDS011;3007;50.770;0.250;2023-05-07T02:04:30;35.47;;;19.43;;
5961;SDS011;3007;50.770;0.250;2023-05-07T02:06:56;23.07;;;16.60;;
5961;SDS011;3007;50.770;0.250;2023-05-07T02:09:23;28.17;;;17.73;;
5961;SDS011;3007;50.770;0.250;2023-05-07T02:11:50;31.60;;;16.67;;
5961;SDS011;3007;50.770;0.250;2023-05-07T02:14:18;27.70;;;17.70;;
5961;SDS011;3007;50.770;0.250;2023-05-07T02:16:46;34.23;;;20.27;;
5961;SDS011;3007;50.770;0.250;2023-05-07T02:19:13;31.93;;;17.77;;
5961;SDS011;3007;50.770;0.250;2023-05-07T02:21:39;26.67;;;16.53;;
5961;SDS011;3007;50.770;0.250;2023-05-07T02:24:06;26.67;;;15.20;;
5961;SDS011;3007;50.770;0.250;2023-05-07T02:26:33;30.17;;;15.70;;
5961;SDS011;3007;50.770;0.250;2023-05-07T02:29:00;25.87;;;14.87;;
5961;SDS011;3007;50.770;0.250;2023-05-07T02:31:28;32.93;;;16.73;;
5961;SDS011;3007;50.770;0.250;2023-05-07T02:33:57;41.30;;;16.67;;
5961;SDS011;3007;50.770;0.250;2023-05-07T02:36:24;35.40;;;16.03;;
5961;SDS011;3007;50.770;0.250;2023-05-07T02:38:51;31.33;;;16.00;;
5961;SDS011;3007;50.770;0.250;2023-05-07T02:41:18;33.83;;;16.00;;
5961;SDS011;3007;50.770;0.250;2023-05-07T02:43:45;27.13;;;15.97;;
5961;SDS011;3007;50.770;0.250;2023-05-07T02:46:12;37.30;;;16.17;;
5961;SDS011;3007;50.770;0.250;2023-05-07T02:48:40;30.17;;;15.33;;
5961;SDS011;3007;50.770;0.250;2023-05-07T02:51:08;30.73;;;15.13;;
5961;SDS011;3007;50.770;0.250;2023-05-07T02:53:34;31.40;;;15.47;;
5961;SDS011;3007;50.770;0.250;2023-05-07T02:56:01;30.83;;;14.13;;
5961;SDS011;3007;50.770;0.250;2023-05-07T02:58:28;28.10;;;15.37;;
5961;SDS011;3007;50.770;0.250;2023-05-07T03:00:55;32.37;;;16.30;;
5961;SDS011;3007;50.770;0.250;2023-05-07T03:03:22;29.40;;;13.80;;
5961;SDS011;3007;50.770;0.250;2023-05-07T03:05:50;20.07;;;11.67;;
5961;SDS011;3007;50.770;0.250;2023-05-07T03:08:17;19.13;;;11.67;;
5961;SDS011;3007;50.770;0.250;2023-05-07T03:10:44;25.80;;;12.00;;
5961;SDS011;3007;50.770;0.250;2023-05-07T03:13:11;19.50;;;11.13;;
5961;SDS011;3007;50.770;0.250;2023-05-07T03:15:38;18.23;;;11.03;;
5961;SDS011;3007;50.770;0.250;2023-05-07T03:18:05;13.03;;;9.03;;
5961;SDS011;3007;50.770;0.250;2023-05-07T03:20:32;12.23;;;9.23;;
5961;SDS011;3007;50.770;0.250;2023-05-07T03:23:00;8.90;;;6.77;;
5961;SDS011;3007;50.770;0.250;2023-05-07T03:25:27;8.93;;;7.20;;
5961;SDS011;3007;50.770;0.250;2023-05-07T03:27:55;9.50;;;7.30;;
5961;SDS011;3007;50.770;0.250;2023-05-07T03:30:21;6.90;;;5.87;;
5961;SDS011;3007;50.770;0.250;2023-05-07T03:32:48;5.93;;;5.33;;
5961;SDS011;3007;50.770;0.250;2023-05-07T03:35:15;6.53;;;5.57;;
5961;SDS011;3007;50.770;0.250;2023-05-07T03:37:42;8.20;;;5.90;;
5961;SDS011;3007;50.770;0.250;2023-05-07T03:40:11;5.90;;;4.73;;
5961;SDS011;3007;50.770;0.250;2023-05-07T03:42:38;7.20;;;5.03;;
5961;SDS011;3007;50.770;0.250;2023-05-07T03:45:05;7.97;;;5.57;;
5961;SDS011;3007;50.770;0.250;2023-05-07T03:47:33;7.07;;;5.37;;
5961;SDS011;3007;50.770;0.250;2023-05-07T03:50:00;6.50;;;4.47;;
5961;SDS011;3007;50.770;0.250;2023-05-07T03:52:26;21.40;;;5.23;;
5961;SDS011;3007;50.770;0.250;2023-05-07T03:54:53;10.10;;;6.07;;
5961;SDS011;3007;50.770;0.250;2023-05-07T03:57:21;17.10;;;5.83;;
5961;SDS011;3007;50.770;0.250;2023-05-07T03:59:48;20.57;;;4.63;;
5961;SDS011;3007;50.770;0.250;2023-05-07T04:02:15;9.53;;;3.63;;
5961;SDS011;3007;50.770;0.250;2023-05-07T04:04:42;15.67;;;4.53;;
5961;SDS011;3007;50.770;0.250;2023-05-07T04:07:09;11.77;;;3.60;;
5961;SDS011;3007;50.770;0.250;2023-05-07T04:09:36;7.37;;;4.13;;
5961;SDS011;3007;50.770;0.250;2023-05-07T04:12:03;4.37;;;3.47;;
5961;SDS011;3007;50.770;0.250;2023-05-07T04:14:31;7.10;;;3.40;;
5961;SDS011;3007;50.770;0.250;2023-05-07T04:16:58;3.43;;;2.50;;
5961;SDS011;3007;50.770;0.250;2023-05-07T04:19:25;3.00;;;2.67;;
5961;SDS011;3007;50.770;0.250;2023-05-07T04:21:52;3.37;;;2.53;;
5961;SDS011;3007;50.770;0.250;2023-05-07T04:24:19;4.43;;;2.27;;
5961;SDS011;3007;50.770;0.250;2023-05-07T04:26:46;3.07;;;2.13;;
5961;SDS011;3007;50.770;0.250;2023-05-07T04:29:13;2.90;;;1.90;;
5961;SDS011;3007;50.770;0.250;2023-05-07T04:31:41;2.77;;;1.70;;
5961;SDS011;3007;50.770;0.250;2023-05-07T04:34:09;2.60;;;1.50;;
5961;SDS011;3007;50.770;0.250;2023-05-07T04:36:37;1.97;;;1.50;;
5961;SDS011;3007;50.770;0.250;2023-05-07T04:39:04;5.40;;;1.90;;
5961;SDS011;3007;50.770;0.250;2023-05-07T04:41:31;1.70;;;1.50;;
5961;SDS011;3007;50.770;0.250;2023-05-07T04:43:58;2.63;;;1.70;;
5961;SDS011;3007;50.770;0.250;2023-05-07T04:46:25;3.10;;;1.37;;
5961;SDS011;3007;50.770;0.250;2023-05-07T04:48:53;2.47;;;1.87;;
5961;SDS011;3007;50.770;0.250;2023-05-07T04:51:20;3.40;;;1.50;;
5961;SDS011;3007;50.770;0.250;2023-05-07T04:53:47;5.70;;;1.80;;
5961;SDS011;3007;50.770;0.250;2023-05-07T04:56:14;4.90;;;2.10;;
5961;SDS011;3007;50.770;0.250;2023-05-07T04:58:41;3.23;;;1.73;;
5961;SDS011;3007;50.770;0.250;2023-05-07T05:01:08;2.13;;;1.93;;
5961;SDS011;3007;50.770;0.250;2023-05-07T05:03:35;2.43;;;2.20;;
5961;SDS011;3007;50.770;0.250;2023-05-07T05:06:04;3.30;;;2.50;;
5961;SDS011;3007;50.770;0.250;2023-05-07T05:08:31;4.33;;;2.23;;
5961;SDS011;3007;50.770;0.250;2023-05-07T05:10:58;4.00;;;2.00;;
5961;SDS011;3007;50.770;0.250;2023-05-07T05:13:26;2.33;;;2.00;;
5961;SDS011;3007;50.770;0.250;2023-05-07T05:15:53;2.10;;;1.67;;
5961;SDS011;3007;50.770;0.250;2023-05-07T05:18:20;4.53;;;2.20;;
5961;SDS011;3007;50.770;0.250;2023-05-07T05:20:47;13.07;;;2.80;;
5961;SDS011;3007;50.770;0.250;2023-05-07T05:23:16;14.17;;;2.40;;
5961;SDS011;3007;50.770;0.250;2023-05-07T05:25:43;22.33;;;2.53;;
5961;SDS011;3007;50.770;0.250;2023-05-07T05:28:09;16.80;;;2.80;;
5961;SDS011;3007;50.770;0.250;2023-05-07T05:30:36;14.00;;;2.50;;
5961;SDS011;3007;50.770;0.250;2023-05-07T05:33:03;10.50;;;2.00;;
5961;SDS011;3007;50.770;0.250;2023-05-07T05:35:30;10.90;;;2.20;;
5961;SDS011;3007;50.770;0.250;2023-05-07T05:37:57;25.23;;;2.47;;
5961;SDS011;3007;50.770;0.250;2023-05-07T05:40:25;22.23;;;2.90;;
5961;SDS011;3007;50.770;0.250;2023-05-07T05:42:52;16.30;;;2.90;;
5961;SDS011;3007;50.770;0.250;2023-05-07T05:45:19;14.30;;;3.10;;
5961;SDS011;3007;50.770;0.250;2023-05-07T05:47:46;7.33;;;2.87;;
5961;SDS011;3007;50.770;0.250;2023-05-07T05:50:13;22.33;;;3.07;;
5961;SDS011;3007;50.770;0.250;2023-05-07T05:52:40;13.73;;;2.93;;
5961;SDS011;3007;50.770;0.250;2023-05-07T05:55:07;2.60;;;2.40;;
5961;SDS011;3007;50.770;0.250;2023-05-07T05:57:36;8.37;;;2.73;;
5961;SDS011;3007;50.770;0.250;2023-05-07T06:00:03;5.87;;;2.60;;
5961;SDS011;3007;50.770;0.250;2023-05-07T06:02:31;5.57;;;3.57;;
5961;SDS011;3007;50.770;0.250;2023-05-07T06:04:58;7.63;;;2.93;;
5961;SDS011;3007;50.770;0.250;2023-05-07T06:07:25;6.23;;;3.40;;
5961;SDS011;3007;50.770;0.250;2023-05-07T06:09:51;3.67;;;3.10;;
5961;SDS011;3007;50.770;0.250;2023-05-07T06:12:18;4.20;;;3.20;;
5961;SDS011;3007;50.770;0.250;2023-05-07T06:14:46;4.27;;;3.30;;
5961;SDS011;3007;50.770;0.250;2023-05-07T06:17:13;3.10;;;2.80;;
5961;SDS011;3007;50.770;0.250;2023-05-07T06:19:40;3.28;;;2.67;;
5961;SDS011;3007;50.770;0.250;2023-05-07T06:22:07;2.90;;;2.58;;
5961;SDS011;3007;50.770;0.250;2023-05-07T06:24:34;2.80;;;2.60;;
5961;SDS011;3007;50.770;0.250;2023-05-07T06:27:01;2.92;;;2.63;;
5961;SDS011;3007;50.770;0.250;2023-05-07T06:29:28;2.92;;;2.63;;
5961;SDS011;3007;50.770;0.250;2023-05-07T06:32:03;3.10;;;2.60;;
5961;SDS011;3007;50.770;0.250;2023-05-07T06:34:32;3.20;;;2.90;;
5961;SDS011;3007;50.770;0.250;2023-05-07T06:36:59;4.15;;;2.88;;
5961;SDS011;3007;50.770;0.250;2023-05-07T06:39:26;3.40;;;3.10;;
5961;SDS011;3007;50.770;0.250;2023-05-07T06:41:53;3.15;;;2.80;;
5961;SDS011;3007;50.770;0.250;2023-05-07T06:44:20;3.70;;;3.40;;
5961;SDS011;3007;50.770;0.250;2023-05-07T06:46:47;6.93;;;3.65;;
5961;SDS011;3007;50.770;0.250;2023-05-07T06:49:15;3.90;;;3.60;;
5961;SDS011;3007;50.770;0.250;2023-05-07T06:51:42;3.75;;;3.40;;
5961;SDS011;3007;50.770;0.250;2023-05-07T06:54:09;3.25;;;2.83;;
5961;SDS011;3007;50.770;0.250;2023-05-07T06:56:38;3.17;;;2.88;;
5961;SDS011;3007;50.770;0.250;2023-05-07T06:59:06;3.63;;;3.33;;
5961;SDS011;3007;50.770;0.250;2023-05-07T07:01:33;3.83;;;3.53;;
5961;SDS011;3007;50.770;0.250;2023-05-07T07:04:00;4.07;;;3.67;;
5961;SDS011;3007;50.770;0.250;2023-05-07T07:06:28;4.07;;;3.70;;
5961;SDS011;3007;50.770;0.250;2023-05-07T07:08:56;5.13;;;3.47;;
5961;SDS011;3007;50.770;0.250;2023-05-07T07:11:23;4.20;;;3.80;;
5961;SDS011;3007;50.770;0.250;2023-05-07T07:13:50;3.80;;;3.50;;
5961;SDS011;3007;50.770;0.250;2023-05-07T07:16:19;8.18;;;3.83;;
5961;SDS011;3007;50.770;0.250;2023-05-07T07:18:46;5.22;;;4.03;;
5961;SDS011;3007;50.770;0.250;2023-05-07T07:21:13;4.30;;;3.90;;
5961;SDS011;3007;50.770;0.250;2023-05-07T07:23:41;5.03;;;4.53;;
5961;SDS011;3007;50.770;0.250;2023-05-07T07:26:08;5.32;;;4.80;;
5961;SDS011;3007;50.770;0.250;2023-05-07T07:28:35;5.72;;;5.22;;
5961;SDS011;3007;50.770;0.250;2023-05-07T07:31:07;5.38;;;4.88;;
5961;SDS011;3007;50.770;0.250;2023-05-07T07:33:34;4.90;;;4.40;;
5961;SDS011;3007;50.770;0.250;2023-05-07T07:36:01;4.93;;;4.47;;
5961;SDS011;3007;50.770;0.250;2023-05-07T07:38:28;5.50;;;5.00;;
5961;SDS011;3007;50.770;0.250;2023-05-07T07:40:56;5.20;;;4.70;;
5961;SDS011;3007;50.770;0.250;2023-05-07T07:43:23;5.15;;;4.65;;
5961;SDS011;3007;50.770;0.250;2023-05-07T07:45:50;5.30;;;4.80;;
5961;SDS011;3007;50.770;0.250;2023-05-07T07:48:17;5.88;;;5.30;;
5961;SDS011;3007;50.770;0.250;2023-05-07T07:50:44;6.57;;;5.07;;
5961;SDS011;3007;50.770;0.250;2023-05-07T07:53:10;6.57;;;5.97;;
5961;SDS011;3007;50.770;0.250;2023-05-07T07:55:38;6.85;;;6.25;;
5961;SDS011;3007;50.770;0.250;2023-05-07T07:58:06;7.70;;;6.88;;
5961;SDS011;3007;50.770;0.250;2023-05-07T08:00:33;8.23;;;7.10;;
5961;SDS011;3007;50.770;0.250;2023-05-07T08:03:00;8.93;;;7.97;;
5961;SDS011;3007;50.770;0.250;2023-05-07T08:05:28;9.57;;;8.57;;
5961;SDS011;3007;50.770;0.250;2023-05-07T08:07:55;10.48;;;9.07;;
5961;SDS011;3007;50.770;0.250;2023-05-07T08:10:22;9.38;;;8.40;;
5961;SDS011;3007;50.770;0.250;2023-05-07T08:12:49;9.43;;;8.30;;
5961;SDS011;3007;50.770;0.250;2023-05-07T08:15:18;9.13;;;8.25;;
5961;SDS011;3007;50.770;0.250;2023-05-07T08:17:45;9.32;;;8.20;;
5961;SDS011;3007;50.770;0.250;2023-05-07T08:20:12;9.93;;;8.93;;
5961;SDS011;3007;50.770;0.250;2023-05-07T08:22:38;8.95;;;8.05;;
5961;SDS011;3007;50.770;0.250;2023-05-07T08:25:05;9.23;;;8.33;;
5961;SDS011;3007;50.770;0.250;2023-05-07T08:27:33;9.32;;;8.20;;
5961;SDS011;3007;50.770;0.250;2023-05-07T08:29:59;10.48;;;9.05;;
5961;SDS011;3007;50.770;0.250;2023-05-07T08:32:28;11.18;;;8.77;;
5961;SDS011;3007;50.770;0.250;2023-05-07T08:34:55;10.20;;;9.20;;
5961;SDS011;3007;50.770;0.250;2023-05-07T08:37:21;9.20;;;8.32;;
5961;SDS011;3007;50.770;0.250;2023-05-07T08:39:48;10.40;;;9.40;;
5961;SDS011;3007;50.770;0.250;2023-05-07T08:42:15;9.73;;;8.73;;
5961;SDS011;3007;50.770;0.250;2023-05-07T08:44:44;11.00;;;9.57;;
5961;SDS011;3007;50.770;0.250;2023-05-07T08:47:12;12.13;;;9.10;;
5961;SDS011;3007;50.770;0.250;2023-05-07T08:49:40;10.18;;;9.18;;
5961;SDS011;3007;50.770;0.250;2023-05-07T08:52:08;12.93;;;9.60;;
5961;SDS011;3007;50.770;0.250;2023-05-07T08:54:36;11.20;;;10.05;;
5961;SDS011;3007;50.770;0.250;2023-05-07T08:57:03;11.68;;;9.65;;
5961;SDS011;3007;50.770;0.250;2023-05-07T08:59:30;13.65;;;10.40;;
5961;SDS011;3007;50.770;0.250;2023-05-07T09:01:57;12.43;;;10.77;;
5961;SDS011;3007;50.770;0.250;2023-05-07T09:04:24;13.02;;;11.40;;
5961;SDS011;3007;50.770;0.250;2023-05-07T09:06:52;13.55;;;11.93;;
5961;SDS011;3007;50.770;0.250;2023-05-07T09:09:21;13.70;;;11.45;;
5961;SDS011;3007;50.770;0.250;2023-05-07T09:11:48;13.75;;;12.20;;
5961;SDS011;3007;50.770;0.250;2023-05-07T09:14:23;13.30;;;11.90;;
5961;SDS011;3007;50.770;0.250;2023-05-07T09:16:51;12.90;;;11.32;;
5961;SDS011;3007;50.770;0.250;2023-05-07T09:19:21;14.05;;;12.48;;
5961;SDS011;3007;50.770;0.250;2023-05-07T09:21:49;14.38;;;11.50;;
5961;SDS011;3007;50.770;0.250;2023-05-07T09:24:17;13.45;;;11.27;;
5961;SDS011;3007;50.770;0.250;2023-05-07T09:26:44;16.55;;;11.38;;
5961;SDS011;3007;50.770;0.250;2023-05-07T09:29:11;13.00;;;11.68;;
5961;SDS011;3007;50.770;0.250;2023-05-07T09:31:38;12.55;;;11.25;;
5961;SDS011;3007;50.770;0.250;2023-05-07T09:34:05;14.30;;;12.10;;
5961;SDS011;3007;50.770;0.250;2023-05-07T09:36:33;15.50;;;12.23;;
5961;SDS011;3007;50.770;0.250;2023-05-07T09:39:00;13.68;;;12.05;;
5961;SDS011;3007;50.770;0.250;2023-05-07T09:41:29;15.13;;;11.52;;
5961;SDS011;3007;50.770;0.250;2023-05-07T09:43:56;14.85;;;12.02;;
5961;SDS011;3007;50.770;0.250;2023-05-07T09:46:26;12.70;;;11.40;;
5961;SDS011;3007;50.770;0.250;2023-05-07T09:48:57;12.73;;;10.98;;
5961;SDS011;3007;50.770;0.250;2023-05-07T09:51:24;15.85;;;11.50;;
5961;SDS011;3007;50.770;0.250;2023-05-07T09:53:56;14.70;;;12.10;;
5961;SDS011;3007;50.770;0.250;2023-05-07T09:56:25;13.75;;;11.35;;
5961;SDS011;3007;50.770;0.250;2023-05-07T09:58:54;14.02;;;11.00;;
5961;SDS011;3007;50.770;0.250;2023-05-07T10:01:23;11.05;;;9.13;;
5961;SDS011;3007;50.770;0.250;2023-05-07T10:03:51;11.85;;;10.10;;
5961;SDS011;3007;50.770;0.250;2023-05-07T10:06:19;10.05;;;9.05;;
5961;SDS011;3007;50.770;0.250;2023-05-07T10:08:46;11.30;;;9.15;;
5961;SDS011;3007;50.770;0.250;2023-05-07T10:11:15;9.57;;;8.57;;
5961;SDS011;3007;50.770;0.250;2023-05-07T10:13:42;9.73;;;8.50;;
5961;SDS011;3007;50.770;0.250;2023-05-07T10:16:11;10.15;;;9.07;;
5961;SDS011;3007;50.770;0.250;2023-05-07T10:18:38;12.27;;;9.18;;
5961;SDS011;3007;50.770;0.250;2023-05-07T10:21:08;11.02;;;8.90;;
5961;SDS011;3007;50.770;0.250;2023-05-07T10:23:37;10.60;;;9.15;;
5961;SDS011;3007;50.770;0.250;2023-05-07T10:26:06;11.68;;;9.65;;
5961;SDS011;3007;50.770;0.250;2023-05-07T10:28:35;10.30;;;9.25;;
5961;SDS011;3007;50.770;0.250;2023-05-07T10:31:08;8.88;;;7.95;;
5961;SDS011;3007;50.770;0.250;2023-05-07T10:33:53;9.88;;;7.68;;
5961;SDS011;3007;50.770;0.250;2023-05-07T10:36:22;10.23;;;8.38;;
5961;SDS011;3007;50.770;0.250;2023-05-07T10:38:51;10.68;;;8.77;;
5961;SDS011;3007;50.770;0.250;2023-05-07T10:41:18;10.63;;;8.32;;
5961;SDS011;3007;50.770;0.250;2023-05-07T10:43:46;9.10;;;7.55;;
5961;SDS011;3007;50.770;0.250;2023-05-07T10:46:14;7.60;;;6.43;;
5961;SDS011;3007;50.770;0.250;2023-05-07T10:51:39;6.10;;;5.60;;
5961;SDS011;3007;50.770;0.250;2023-05-07T10:54:18;6.38;;;5.78;;
5961;SDS011;3007;50.770;0.250;2023-05-07T10:56:50;7.90;;;6.32;;
5961;SDS011;3007;50.770;0.250;2023-05-07T11:02:07;6.07;;;5.15;;
5961;SDS011;3007;50.770;0.250;2023-05-07T11:04:36;6.65;;;5.95;;
5961;SDS011;3007;50.770;0.250;2023-05-07T11:07:25;6.78;;;6.07;;
5961;SDS011;3007;50.770;0.250;2023-05-07T11:09:54;6.70;;;5.30;;
5961;SDS011;3007;50.770;0.250;2023-05-07T11:15:41;6.75;;;5.40;;
5961;SDS011;3007;50.770;0.250;2023-05-07T11:18:11;5.60;;;5.07;;
5961;SDS011;3007;50.770;0.250;2023-05-07T11:20:55;5.70;;;5.20;;
5961;SDS011;3007;50.770;0.250;2023-05-07T11:26:46;7.63;;;6.43;;
5961;SDS011;3007;50.770;0.250;2023-05-07T11:29:15;8.57;;;6.32;;
5961;SDS011;3007;50.770;0.250;2023-05-07T11:31:43;6.93;;;6.32;;
5961;SDS011;3007;50.770;0.250;2023-05-07T11:34:11;8.00;;;7.20;;
5961;SDS011;3007;50.770;0.250;2023-05-07T11:36:41;9.70;;;6.90;;
5961;SDS011;3007;50.770;0.250;2023-05-07T11:39:28;7.88;;;6.72;;
5961;SDS011;3007;50.770;0.250;2023-05-07T11:41:58;6.15;;;5.55;;
5961;SDS011;3007;50.770;0.250;2023-05-07T11:44:25;6.40;;;5.80;;
5961;SDS011;3007;50.770;0.250;2023-05-07T11:47:05;6.32;;;5.75;;
5961;SDS011;3007;50.770;0.250;2023-05-07T11:49:33;6.13;;;5.53;;
5961;SDS011;3007;50.770;0.250;2023-05-07T11:52:00;5.28;;;4.80;;
5961;SDS011;3007;50.770;0.250;2023-05-07T11:54:34;7.30;;;5.30;;
5961;SDS011;3007;50.770;0.250;2023-05-07T11:57:02;6.00;;;5.40;;
5961;SDS011;3007;50.770;0.250;2023-05-07T11:59:29;5.07;;;4.55;;
5961;SDS011;3007;50.770;0.250;2023-05-07T12:01:56;6.25;;;5.72;;
5961;SDS011;3007;50.770;0.250;2023-05-07T12:04:24;6.80;;;6.18;;
5961;SDS011;3007;50.770;0.250;2023-05-07T12:06:54;6.57;;;5.85;;
5961;SDS011;3007;50.770;0.250;2023-05-07T12:09:21;6.65;;;6.05;;
5961;SDS011;3007;50.770;0.250;2023-05-07T12:11:48;6.07;;;5.47;;
5961;SDS011;3007;50.770;0.250;2023-05-07T12:14:17;6.82;;;6.22;;
5961;SDS011;3007;50.770;0.250;2023-05-07T12:16:44;6.97;;;6.22;;
5961;SDS011;3007;50.770;0.250;2023-05-07T12:19:12;6.13;;;5.60;;
5961;SDS011;3007;50.770;0.250;2023-05-07T12:21:39;12.57;;;11.32;;
5961;SDS011;3007;50.770;0.250;2023-05-07T12:24:09;7.05;;;5.90;;
5961;SDS011;3007;50.770;0.250;2023-05-07T12:26:37;5.45;;;4.95;;
5961;SDS011;3007;50.770;0.250;2023-05-07T12:29:05;6.22;;;5.63;;
5961;SDS011;3007;50.770;0.250;2023-05-07T12:31:32;7.50;;;6.68;;
5961;SDS011;3007;50.770;0.250;2023-05-07T12:33:59;5.85;;;5.35;;
5961;SDS011;3007;50.770;0.250;2023-05-07T12:36:26;7.18;;;5.93;;
5961;SDS011;3007;50.770;0.250;2023-05-07T12:39:04;7.28;;;6.57;;
5961;SDS011;3007;50.770;0.250;2023-05-07T12:41:34;6.85;;;6.15;;
5961;SDS011;3007;50.770;0.250;2023-05-07T12:44:04;6.03;;;5.53;;
5961;SDS011;3007;50.770;0.250;2023-05-07T12:46:31;6.88;;;6.18;;
5961;SDS011;3007;50.770;0.250;2023-05-07T12:48:58;7.22;;;6.53;;
5961;SDS011;3007;50.770;0.250;2023-05-07T12:51:25;7.28;;;5.95;;
5961;SDS011;3007;50.770;0.250;2023-05-07T12:53:55;6.93;;;6.22;;
5961;SDS011;3007;50.770;0.250;2023-05-07T12:56:23;7.03;;;5.85;;
5961;SDS011;3007;50.770;0.250;2023-05-07T12:58:51;6.80;;;6.07;;
5961;SDS011;3007;50.770;0.250;2023-05-07T13:01:28;7.25;;;6.30;;
5961;SDS011;3007;50.770;0.250;2023-05-07T13:03:56;7.53;;;6.50;;
5961;SDS011;3007;50.770;0.250;2023-05-07T13:06:27;6.57;;;5.88;;
5961;SDS011;3007;50.770;0.250;2023-05-07T13:08:53;8.13;;;6.47;;
5961;SDS011;3007;50.770;0.250;2023-05-07T13:11:20;7.00;;;6.30;;
5961;SDS011;3007;50.770;0.250;2023-05-07T13:13:47;8.25;;;6.50;;
5961;SDS011;3007;50.770;0.250;2023-05-07T13:16:15;7.93;;;6.60;;
5961;SDS011;3007;50.770;0.250;2023-05-07T13:18:42;7.80;;;7.00;;
5961;SDS011;3007;50.770;0.250;2023-05-07T13:21:10;9.10;;;7.82;;
5961;SDS011;3007;50.770;0.250;2023-05-07T13:23:38;11.18;;;8.45;;
5961;SDS011;3007;50.770;0.250;2023-05-07T13:26:05;10.05;;;7.80;;
5961;SDS011;3007;50.770;0.250;2023-05-07T13:28:32;11.25;;;8.95;;
5961;SDS011;3007;50.770;0.250;2023-05-07T13:30:59;9.68;;;8.48;;
5961;SDS011;3007;50.770;0.250;2023-05-07T13:33:27;10.95;;;9.50;;
5961;SDS011;3007;50.770;0.250;2023-05-07T13:35:54;10.13;;;8.55;;
5961;SDS011;3007;50.770;0.250;2023-05-07T13:38:22;12.60;;;9.93;;
5961;SDS011;3007;50.770;0.250;2023-05-07T13:40:48;10.60;;;8.52;;
5961;SDS011;3007;50.770;0.250;2023-05-07T13:43:17;11.35;;;8.98;;
5961;SDS011;3007;50.770;0.250;2023-05-07T13:45:45;11.73;;;9.07;;
5961;SDS011;3007;50.770;0.250;2023-05-07T13:48:13;12.38;;;9.30;;
5961;SDS011;3007;50.770;0.250;2023-05-07T13:50:42;12.95;;;9.07;;
5961;SDS011;3007;50.770;0.250;2023-05-07T13:53:08;13.07;;;9.40;;
5961;SDS011;3007;50.770;0.250;2023-05-07T13:55:35;12.25;;;8.82;;
5961;SDS011;3007;50.770;0.250;2023-05-07T13:58:02;13.75;;;9.15;;
5961;SDS011;3007;50.770;0.250;2023-05-07T14:00:29;13.25;;;10.18;;
5961;SDS011;3007;50.770;0.250;2023-05-07T14:02:56;14.93;;;9.43;;
5961;SDS011;3007;50.770;0.250;2023-05-07T14:05:23;11.82;;;9.10;;
5961;SDS011;3007;50.770;0.250;2023-05-07T14:07:53;13.80;;;9.88;;
5961;SDS011;3007;50.770;0.250;2023-05-07T14:10:20;13.85;;;9.77;;
5961;SDS011;3007;50.770;0.250;2023-05-07T14:12:47;14.10;;;9.82;;
5961;SDS011;3007;50.770;0.250;2023-05-07T14:15:14;16.48;;;10.25;;
5961;SDS011;3007;50.770;0.250;2023-05-07T14:17:41;11.93;;;9.95;;
5961;SDS011;3007;50.770;0.250;2023-05-07T14:20:09;14.85;;;10.70;;
5961;SDS011;3007;50.770;0.250;2023-05-07T14:22:36;15.38;;;10.68;;
5961;SDS011;3007;50.770;0.250;2023-05-07T14:25:05;17.73;;;10.45;;
5961;SDS011;3007;50.770;0.250;2023-05-07T14:27:34;17.42;;;10.68;;
5961;SDS011;3007;50.770;0.250;2023-05-07T14:30:01;15.52;;;9.90;;
5961;SDS011;3007;50.770;0.250;2023-05-07T14:32:28;14.90;;;10.43;;
5961;SDS011;3007;50.770;0.250;2023-05-07T14:34:55;15.95;;;11.90;;
5961;SDS011;3007;50.770;0.250;2023-05-07T14:37:21;15.88;;;10.40;;
5961;SDS011;3007;50.770;0.250;2023-05-07T14:39:49;15.02;;;11.27;;
5961;SDS011;3007;50.770;0.250;2023-05-07T14:42:17;14.80;;;11.38;;
5961;SDS011;3007;50.770;0.250;2023-05-07T14:44:44;16.75;;;11.23;;
5961;SDS011;3007;50.770;0.250;2023-05-07T14:47:13;14.75;;;11.95;;
5961;SDS011;3007;50.770;0.250;2023-05-07T14:49:40;12.95;;;10.15;;
5961;SDS011;3007;50.770;0.250;2023-05-07T14:52:08;13.05;;;10.32;;
5961;SDS011;3007;50.770;0.250;2023-05-07T14:54:36;13.02;;;9.93;;
5961;SDS011;3007;50.770;0.250;2023-05-07T14:57:04;16.17;;;9.18;;
5961;SDS011;3007;50.770;0.250;2023-05-07T14:59:32;11.05;;;8.60;;
5961;SDS011;3007;50.770;0.250;2023-05-07T15:02:00;14.55;;;11.05;;
5961;SDS011;3007;50.770;0.250;2023-05-07T15:04:27;15.38;;;9.90;;
5961;SDS011;3007;50.770;0.250;2023-05-07T15:06:54;15.32;;;9.88;;
5961;SDS011;3007;50.770;0.250;2023-05-07T15:09:21;14.27;;;9.70;;
5961;SDS011;3007;50.770;0.250;2023-05-07T15:11:47;13.50;;;9.55;;
5961;SDS011;3007;50.770;0.250;2023-05-07T15:14:14;12.23;;;8.55;;
5961;SDS011;3007;50.770;0.250;2023-05-07T15:16:43;11.88;;;8.80;;
5961;SDS011;3007;50.770;0.250;2023-05-07T15:19:10;13.27;;;9.00;;